createdAt,value
2023-05-05T05:25:34.551Z,100572.30
2023-05-05T05:28:10.211Z,100566.20
2023-05-05T05:30:42.629Z,100565.26
2023-05-05T05:33:10.918Z,100563.84
2023-05-05T05:35:38.835Z,100561.45
2023-05-05T05:38:06.131Z,100555.81
2023-05-05T05:40:33.275Z,100558.48
2023-05-05T05:43:00.542Z,100555.94
2023-05-05T05:45:27.802Z,100558.02
2023-05-05T05:47:55.286Z,100553.57
2023-05-05T05:50:22.921Z,100551.14
2023-05-05T05:52:50.051Z,100552.56
2023-05-05T05:55:17.303Z,100552.17
2023-05-05T05:57:45.086Z,100553.72
2023-05-05T06:00:13.664Z,100552.25
2023-05-05T06:02:42.191Z,100548.69
2023-05-05T06:05:13.313Z,100544.62
2023-05-05T06:07:42.032Z,100543.95
2023-05-05T06:10:25.760Z,100538.65
2023-05-05T06:12:55.645Z,100539.09
2023-05-05T06:15:23.370Z,100543.27
2023-05-05T06:17:50.561Z,100543.64
2023-05-05T06:20:17.771Z,100546.41
2023-05-05T06:22:44.929Z,100543.02
2023-05-05T06:25:12.324Z,100541.64
2023-05-05T06:27:39.564Z,100543.94
2023-05-05T06:30:07.925Z,100545.31
2023-05-05T06:32:35.226Z,100537.67
2023-05-05T06:35:02.639Z,100536.24
2023-05-05T06:37:29.768Z,100531.42
2023-05-05T06:39:57.016Z,100533.59
2023-05-05T06:42:24.271Z,100538.31
2023-05-05T06:44:52.274Z,100535.04
2023-05-05T06:47:19.499Z,100534.63
2023-05-05T06:49:46.952Z,100534.59
2023-05-05T06:52:14.112Z,100531.96
2023-05-05T06:54:41.176Z,100529.23
2023-05-05T06:57:08.349Z,100524.77
2023-05-05T06:59:35.329Z,100516.04
2023-05-05T07:02:02.387Z,100511.14
2023-05-05T07:04:29.872Z,100508.55
2023-05-05T07:06:58.547Z,100501.52
2023-05-05T07:09:25.863Z,100497.67
2023-05-05T07:11:52.915Z,100496.00
2023-05-05T07:14:21.521Z,100495.71
2023-05-05T07:16:50.883Z,100495.32
2023-05-05T07:19:18.194Z,100497.02
2023-05-05T07:21:45.192Z,100499.35
2023-05-05T07:24:12.281Z,100494.66
2023-05-05T07:26:39.434Z,100489.84
2023-05-05T07:29:07.317Z,100490.92
2023-05-05T07:31:34.408Z,100482.41
2023-05-05T07:34:01.649Z,100476.00
2023-05-05T07:36:28.948Z,100476.91
2023-05-05T07:38:56.027Z,100471.82
2023-05-05T07:41:23.268Z,100466.58
2023-05-05T07:43:50.600Z,100465.25
2023-05-05T07:46:18.374Z,100468.84
2023-05-05T07:48:46.365Z,100466.90
2023-05-05T07:51:13.489Z,100467.16
2023-05-05T07:53:41.278Z,100465.53
2023-05-05T07:56:09.219Z,100466.84
2023-05-05T07:58:36.625Z,100465.54
2023-05-05T08:01:06.565Z,100463.89
2023-05-05T08:03:34.021Z,100467.12
2023-05-05T08:06:06.759Z,100463.85
2023-05-05T08:08:33.989Z,100464.13
2023-05-05T08:11:01.669Z,100463.86
2023-05-05T08:13:30.331Z,100465.54
2023-05-05T08:15:57.580Z,100469.59
2023-05-05T08:18:24.888Z,100468.42
2023-05-05T08:20:53.051Z,100456.73
2023-05-05T08:23:20.176Z,100450.46
2023-05-05T08:25:47.305Z,100447.44
2023-05-05T08:28:14.354Z,100443.48
2023-05-05T08:30:42.074Z,100439.58
2023-05-05T08:33:09.198Z,100437.67
2023-05-05T08:35:36.200Z,100440.75
2023-05-05T08:38:03.379Z,100441.28
2023-05-05T08:40:33.962Z,100436.57
2023-05-05T08:43:01.674Z,100432.17
2023-05-05T08:45:31.903Z,100428.80
2023-05-05T08:48:04.106Z,100426.56
2023-05-05T08:50:31.603Z,100424.71
2023-05-05T08:53:12.173Z,100418.34
2023-05-05T08:55:42.176Z,100418.48
2023-05-05T08:58:09.232Z,100417.17
2023-05-05T09:00:36.274Z,100414.91
2023-05-05T09:03:03.580Z,100415.10
2023-05-05T09:05:30.779Z,100413.58
2023-05-05T09:07:57.833Z,100412.59
2023-05-05T09:10:25.895Z,100411.02
2023-05-05T09:12:53.547Z,100407.96
2023-05-05T09:15:20.697Z,100410.02
2023-05-05T09:17:47.827Z,100410.14
2023-05-05T09:20:15.115Z,100411.80
2023-05-05T09:22:44.117Z,100408.30
2023-05-05T09:25:15.383Z,100405.62
2023-05-05T09:27:47.046Z,100403.09
2023-05-05T09:30:18.807Z,100403.27
2023-05-05T09:32:50.485Z,100402.41
2023-05-05T09:35:18.395Z,100395.46
2023-05-05T09:37:45.832Z,100390.67
2023-05-05T09:40:19.097Z,100384.02
2023-05-05T09:42:46.506Z,100382.20
2023-05-05T09:45:20.174Z,100380.45
2023-05-05T09:47:47.905Z,100379.40
2023-05-05T09:50:21.575Z,100379.16
2023-05-05T09:52:59.745Z,100379.39
2023-05-05T09:55:26.928Z,100376.20
2023-05-05T09:57:54.092Z,100375.15
2023-05-05T10:00:21.447Z,100372.88
2023-05-05T10:02:48.541Z,100366.73
2023-05-05T10:05:17.234Z,100365.10
2023-05-05T10:07:45.749Z,100367.02
2023-05-05T10:10:17.251Z,100368.89
2023-05-05T10:12:46.402Z,100367.52
2023-05-05T10:15:14.188Z,100367.21
2023-05-05T10:18:02.807Z,100362.73
2023-05-05T10:20:33.755Z,100361.76
2023-05-05T10:23:00.903Z,100357.97
2023-05-05T10:25:31.223Z,100354.74
2023-05-05T10:27:59.915Z,100355.37
2023-05-05T10:30:35.186Z,100350.70
2023-05-05T10:35:53.147Z,100359.33
2023-05-05T10:38:20.443Z,100360.20
2023-05-05T10:40:48.747Z,100356.33
2023-05-05T10:43:16.032Z,100355.41
2023-05-05T10:45:43.340Z,100350.66
2023-05-05T10:48:13.609Z,100349.66
2023-05-05T10:50:47.835Z,100349.59
2023-05-05T10:53:27.026Z,100343.36
2023-05-05T10:56:03.696Z,100342.41
2023-05-05T10:58:51.088Z,100339.58
2023-05-05T11:01:30.399Z,100335.39
2023-05-05T11:04:18.218Z,100331.79
2023-05-05T11:07:13.714Z,100322.96
2023-05-05T11:09:58.365Z,100322.41
2023-05-05T11:12:25.617Z,100323.52
2023-05-05T11:15:24.325Z,100325.16
2023-05-05T11:17:51.519Z,100323.70
2023-05-05T11:20:37.481Z,100316.55
2023-05-05T11:23:05.159Z,100311.58
2023-05-05T11:25:36.762Z,100309.30
2023-05-05T11:28:08.829Z,100307.38
2023-05-05T11:30:36.802Z,100306.02
2023-05-05T11:33:39.683Z,100299.48
2023-05-05T11:36:07.922Z,100294.91
2023-05-05T11:39:00.553Z,100295.06
2023-05-05T11:41:30.830Z,100289.57
2023-05-05T11:44:13.947Z,100286.17
2023-05-05T11:49:46.613Z,100276.79
2023-05-05T11:52:14.567Z,100280.80
2023-05-05T11:57:33.396Z,100275.73
2023-05-05T12:00:08.435Z,100273.36
2023-05-05T12:02:36.225Z,100270.06
2023-05-05T12:05:03.554Z,100265.73
2023-05-05T12:07:32.078Z,100265.60
2023-05-05T12:09:59.432Z,100262.10
2023-05-05T12:12:37.268Z,100264.46
2023-05-05T12:15:05.471Z,100262.36
2023-05-05T12:17:45.023Z,100263.45
2023-05-05T12:20:12.905Z,100255.28
2023-05-05T12:22:40.619Z,100251.91
2023-05-05T12:25:08.240Z,100249.92
2023-05-05T12:27:35.601Z,100245.42
2023-05-05T12:30:16.757Z,100239.98
2023-05-05T12:32:44.309Z,100237.91
2023-05-05T12:35:11.663Z,100233.88
2023-05-05T12:37:38.796Z,100235.30
2023-05-05T12:40:07.410Z,100230.54
2023-05-05T12:42:41.257Z,100226.00
2023-05-05T12:45:17.517Z,100228.52
2023-05-05T12:47:45.184Z,100229.02
2023-05-05T12:50:12.476Z,100222.29
2023-05-05T12:52:44.141Z,100221.58
2023-05-05T12:55:11.647Z,100219.75
2023-05-05T12:57:39.599Z,100215.55
2023-05-05T13:00:16.862Z,100214.48
2023-05-05T13:02:44.558Z,100213.55
2023-05-05T13:05:12.375Z,100212.85
2023-05-05T13:07:52.322Z,100208.93
2023-05-05T13:10:19.482Z,100209.52
2023-05-05T13:12:46.536Z,100208.23
2023-05-05T13:15:13.995Z,100210.84
2023-05-05T13:17:41.237Z,100205.38
2023-05-05T13:20:10.874Z,100206.39
2023-05-05T13:22:38.254Z,100205.73
2023-05-05T13:25:05.908Z,100204.77
2023-05-05T13:30:15.275Z,100203.31
2023-05-05T13:32:42.498Z,100201.23
2023-05-05T13:35:10.394Z,100200.10
2023-05-05T13:37:37.997Z,100197.21
2023-05-05T13:40:05.929Z,100191.23
2023-05-05T13:42:33.033Z,100192.41
2023-05-05T13:45:00.180Z,100190.10
2023-05-05T13:47:27.323Z,100188.84
2023-05-05T13:49:54.397Z,100191.90
2023-05-05T13:52:21.500Z,100188.63
2023-05-05T13:54:48.664Z,100187.33
2023-05-05T13:57:15.693Z,100186.45
2023-05-05T13:59:42.841Z,100189.75
2023-05-05T14:02:09.952Z,100185.95
2023-05-05T14:07:21.697Z,100182.27
2023-05-05T14:09:48.752Z,100180.11
2023-05-05T14:12:15.850Z,100177.33
2023-05-05T14:14:43.052Z,100176.61
2023-05-05T14:17:10.226Z,100174.14
2023-05-05T14:19:37.255Z,100176.23
2023-05-05T14:22:04.495Z,100173.80
2023-05-05T14:24:31.571Z,100173.75
2023-05-05T14:26:58.690Z,100171.64
2023-05-05T14:29:25.740Z,100166.54
2023-05-05T14:31:52.997Z,100164.73
2023-05-05T14:34:20.341Z,100167.16
2023-05-05T14:36:47.504Z,100165.85
2023-05-05T14:39:14.560Z,100161.77
2023-05-05T14:41:41.536Z,100160.52
2023-05-05T14:44:08.637Z,100158.05
2023-05-05T14:46:35.793Z,100157.63
2023-05-05T14:49:02.859Z,100157.92
2023-05-05T14:51:30.190Z,100154.09
2023-05-05T14:53:57.348Z,100149.27
2023-05-05T14:56:26.765Z,100152.71
2023-05-05T14:58:54.306Z,100151.39
2023-05-05T15:01:21.474Z,100150.20
2023-05-05T15:03:48.549Z,100148.74
2023-05-05T15:06:16.696Z,100142.96
2023-05-05T15:08:43.731Z,100143.78
2023-05-05T15:11:10.770Z,100137.58
2023-05-05T15:13:41.777Z,100136.88
2023-05-05T15:16:08.880Z,100133.98
2023-05-05T15:18:36.580Z,100131.19
2023-05-05T15:21:04.798Z,100136.41
2023-05-05T15:23:31.873Z,100133.41
2023-05-05T15:25:59.007Z,100134.53
2023-05-05T15:28:26.135Z,100138.48
2023-05-05T15:30:53.399Z,100133.46
2023-05-05T15:33:20.449Z,100133.96
2023-05-05T15:35:47.595Z,100134.22
2023-05-05T15:38:14.670Z,100132.88
2023-05-05T15:40:41.698Z,100134.20
2023-05-05T15:43:08.839Z,100137.45
2023-05-05T15:45:36.399Z,100137.64
2023-05-05T15:48:04.273Z,100136.04
2023-05-05T15:50:32.127Z,100139.03
2023-05-05T15:52:59.285Z,100141.25
2023-05-05T15:55:26.653Z,100140.55
2023-05-05T15:57:54.301Z,100149.19
2023-05-05T16:00:21.835Z,100147.85
2023-05-05T16:02:49.155Z,100149.61
2023-05-05T16:05:16.363Z,100151.61
2023-05-05T16:07:43.855Z,100149.64
2023-05-05T16:10:10.989Z,100152.05
2023-05-05T16:12:38.561Z,100153.70
2023-05-05T16:15:06.737Z,100151.85
2023-05-05T16:17:34.077Z,100152.12
2023-05-05T16:20:01.463Z,100153.61
2023-05-05T16:22:28.763Z,100156.48
2023-05-05T16:24:55.837Z,100151.64
2023-05-05T16:27:22.967Z,100150.92
2023-05-05T16:29:50.236Z,100152.00
2023-05-05T16:32:17.466Z,100153.17
2023-05-05T16:34:44.728Z,100152.75
2023-05-05T16:37:12.785Z,100154.15
2023-05-05T16:39:40.477Z,100157.30
2023-05-05T16:42:07.755Z,100158.17
2023-05-05T16:44:34.838Z,100160.49
2023-05-05T16:47:01.958Z,100158.84
2023-05-05T16:49:29.156Z,100160.88
2023-05-05T16:51:57.391Z,100158.63
2023-05-05T16:54:24.581Z,100158.77
2023-05-05T16:56:52.615Z,100161.58
2023-05-05T16:59:19.807Z,100162.59
2023-05-05T17:01:47.177Z,100161.02
2023-05-05T17:04:14.421Z,100159.33
2023-05-05T17:06:41.457Z,100159.66
2023-05-05T17:09:08.712Z,100161.73
2023-05-05T17:11:36.375Z,100162.85
2023-05-05T17:14:03.883Z,100162.61
2023-05-05T17:16:31.365Z,100165.14
2023-05-05T17:18:58.612Z,100168.23
2023-05-05T17:21:25.695Z,100168.39
2023-05-05T17:23:52.733Z,100171.33
2023-05-05T17:26:19.984Z,100169.14
2023-05-05T17:28:47.210Z,100170.60
2023-05-05T17:31:14.428Z,100172.05
2023-05-05T17:33:41.584Z,100171.84
2023-05-05T17:36:09.175Z,100171.84
2023-05-05T17:38:36.565Z,100171.73
2023-05-05T17:41:03.718Z,100171.30
2023-05-05T17:43:30.854Z,100169.38
2023-05-05T17:45:57.924Z,100171.27
2023-05-05T17:48:26.442Z,100164.75
2023-05-05T17:50:53.938Z,100165.94
2023-05-05T17:53:21.755Z,100166.09
2023-05-05T17:55:48.885Z,100167.65
2023-05-05T17:58:16.059Z,100167.02
2023-05-05T18:00:43.160Z,100164.34
2023-05-05T18:03:10.382Z,100162.83
2023-05-05T18:05:37.563Z,100164.04
2023-05-05T18:08:04.750Z,100161.65
2023-05-05T18:10:32.607Z,100162.73
2023-05-05T18:12:59.667Z,100161.91
2023-05-05T18:15:26.782Z,100162.61
2023-05-05T18:17:54.359Z,100165.29
2023-05-05T18:20:21.551Z,100168.20
2023-05-05T18:22:48.706Z,100168.25
2023-05-05T18:25:15.900Z,100169.79
2023-05-05T18:27:44.088Z,100172.48
2023-05-05T18:30:11.832Z,100171.61
2023-05-05T18:32:39.212Z,100170.42
2023-05-05T18:35:07.391Z,100172.08
2023-05-05T18:37:34.724Z,100170.85
2023-05-05T18:40:01.800Z,100183.10
2023-05-05T18:42:28.835Z,100192.18
2023-05-05T18:44:55.772Z,100197.63
2023-05-05T18:47:23.928Z,100202.88
2023-05-05T18:49:51.486Z,100201.65
2023-05-05T18:52:18.535Z,100202.45
2023-05-05T18:54:45.678Z,100207.55
2023-05-05T18:57:12.867Z,100208.38
2023-05-05T18:59:40.108Z,100207.58
2023-05-05T19:02:08.184Z,100210.19
2023-05-05T19:04:38.103Z,100213.96
2023-05-05T19:07:05.957Z,100217.95
2023-05-05T19:09:33.200Z,100224.88
2023-05-05T19:12:00.270Z,100228.52
2023-05-05T19:14:27.609Z,100227.00
2023-05-05T19:16:56.127Z,100230.04
2023-05-05T19:19:23.531Z,100230.61
2023-05-05T19:21:50.802Z,100230.98
2023-05-05T19:24:17.958Z,100230.87
2023-05-05T19:26:45.087Z,100234.63
2023-05-05T19:29:12.844Z,100230.89
2023-05-05T19:31:40.033Z,100229.44
2023-05-05T19:34:07.293Z,100232.47
2023-05-05T19:36:34.742Z,100230.43
2023-05-05T19:39:02.877Z,100230.14
2023-05-05T19:41:31.182Z,100230.20
2023-05-05T19:43:58.405Z,100226.91
2023-05-05T19:46:28.474Z,100232.01
2023-05-05T19:48:55.926Z,100232.35
2023-05-05T19:51:23.165Z,100230.05
2023-05-05T19:53:51.003Z,100233.10
2023-05-05T19:56:18.148Z,100227.45
2023-05-05T19:58:56.155Z,100227.43
2023-05-05T20:01:23.581Z,100229.72
2023-05-05T20:03:51.288Z,100229.20
2023-05-05T20:06:18.525Z,100228.77
2023-05-05T20:08:45.539Z,100229.10
2023-05-05T20:11:17.008Z,100229.02
2023-05-05T20:13:44.177Z,100227.83
2023-05-05T20:16:11.937Z,100227.17
2023-05-05T20:18:39.822Z,100223.69
2023-05-05T20:21:07.310Z,100222.45
2023-05-05T20:23:34.623Z,100219.88
2023-05-05T20:26:01.912Z,100222.46
2023-05-05T20:28:30.076Z,100220.13
2023-05-05T20:30:57.280Z,100221.48
2023-05-05T20:33:24.554Z,100216.52
2023-05-05T20:35:51.728Z,100223.23
2023-05-05T20:38:18.954Z,100222.46
2023-05-05T20:40:46.322Z,100226.55
2023-05-05T20:43:13.483Z,100227.94
2023-05-05T20:45:40.687Z,100233.55
2023-05-05T20:48:10.081Z,100236.52
2023-05-05T20:50:38.757Z,100234.77
2023-05-05T20:53:07.900Z,100231.05
2023-05-05T20:55:35.483Z,100233.24
2023-05-05T20:58:03.509Z,100233.66
2023-05-05T21:00:30.577Z,100239.13
2023-05-05T21:02:57.566Z,100239.42
2023-05-05T21:05:24.699Z,100240.77
2023-05-05T21:07:53.349Z,100247.97
2023-05-05T21:10:20.561Z,100251.27
2023-05-05T21:12:47.650Z,100253.81
2023-05-05T21:15:16.744Z,100250.99
2023-05-05T21:17:43.947Z,100250.71
2023-05-05T21:20:11.657Z,100249.63
2023-05-05T21:22:39.026Z,100251.16
2023-05-05T21:25:15.928Z,100251.27
2023-05-05T21:27:43.083Z,100252.38
2023-05-05T21:30:11.426Z,100255.00
2023-05-05T21:32:39.389Z,100253.84
2023-05-05T21:35:07.206Z,100260.50
2023-05-05T21:37:34.227Z,100257.84
2023-05-05T21:40:01.280Z,100255.89
2023-05-05T21:42:30.164Z,100255.13
2023-05-05T21:44:57.089Z,100254.45
2023-05-05T21:47:24.138Z,100256.92
2023-05-05T21:49:51.133Z,100254.95
2023-05-05T21:52:18.130Z,100255.79
2023-05-05T21:54:45.519Z,100256.84
2023-05-05T21:57:12.467Z,100256.48
2023-05-05T21:59:39.428Z,100255.16
2023-05-05T22:02:06.443Z,100254.75
2023-05-05T22:04:33.433Z,100254.18
2023-05-05T22:07:00.437Z,100257.89
2023-05-05T22:09:27.436Z,100258.17
2023-05-05T22:11:54.483Z,100262.00
2023-05-05T22:14:21.721Z,100260.56
2023-05-05T22:16:48.745Z,100263.77
2023-05-05T22:19:15.928Z,100261.63
2023-05-05T22:21:42.994Z,100261.90
2023-05-05T22:24:10.057Z,100263.48
2023-05-05T22:26:39.896Z,100263.34
2023-05-05T22:29:06.864Z,100263.95
2023-05-05T22:31:33.904Z,100263.48
2023-05-05T22:34:01.053Z,100267.52
2023-05-05T22:36:28.018Z,100267.64
2023-05-05T22:38:55.187Z,100268.95
2023-05-05T22:41:22.243Z,100270.63
2023-05-05T22:43:49.467Z,100271.11
2023-05-05T22:46:16.493Z,100271.86
2023-05-05T22:48:43.530Z,100267.39
2023-05-05T22:51:11.340Z,100270.55
2023-05-05T22:53:38.942Z,100270.81
2023-05-05T22:56:06.428Z,100268.29
2023-05-05T22:58:33.484Z,100269.48
2023-05-05T23:01:00.567Z,100265.38
2023-05-05T23:03:27.588Z,100271.56
2023-05-05T23:05:54.546Z,100273.63
2023-05-05T23:08:21.870Z,100274.92
2023-05-05T23:10:48.820Z,100271.34
2023-05-05T23:13:15.990Z,100277.83
2023-05-05T23:15:43.768Z,100275.48
2023-05-05T23:18:11.098Z,100276.92
2023-05-05T23:20:38.076Z,100275.58
2023-05-05T23:23:05.097Z,100275.89
2023-05-05T23:25:32.064Z,100277.39
2023-05-05T23:27:59.059Z,100279.68
2023-05-05T23:30:26.117Z,100279.48
2023-05-05T23:32:53.199Z,100282.05
2023-05-05T23:35:20.321Z,100286.16
2023-05-05T23:37:47.352Z,100285.48
2023-05-05T23:40:14.349Z,100284.45
2023-05-05T23:42:41.318Z,100279.44
2023-05-05T23:45:09.337Z,100283.38
2023-05-05T23:47:36.568Z,100283.80
2023-05-05T23:50:03.787Z,100282.36
2023-05-05T23:52:30.837Z,100278.39
2023-05-05T23:54:57.838Z,100278.84
2023-05-05T23:57:24.820Z,100281.58
2023-05-05T23:59:51.859Z,100278.23
